Time;durP1;ratioP1;P1;durP2;ratioP2;P2;SDS_P1;SDS_P2;PMS_P1;PMS_P2;Temp;Humidity;BMP_temperature;BMP_pressure;BME280_temperature;BME280_humidity;BME280_pressure;Samples;Min_cycle;Max_cycle;Signal;HPM_P1;HPM_P2
2021/06/30 00:04:57;;;;;;;10.60;7.28;;;;;;;;;;263869;1095;101066;-71
2021/06/30 00:10:06;;;;;;;11.83;7.85;;;;;;;;;;263793;1096;101349;-72
2021/06/30 00:15:18;;;;;;;7.65;6.95;;;;;;;;;;263859;1095;101304;-70
2021/06/30 00:20:23;;;;;;;8.73;7.30;;;;;;;;;;263792;1095;102007;-72
2021/06/30 00:25:30;;;;;;;7.03;6.35;;;;;;;;;;263639;1095;101213;-72
2021/06/30 00:30:33;;;;;;;6.60;6.00;;;;;;;;;;263931;1095;100988;-72
2021/06/30 00:35:38;;;;;;;7.95;7.25;;;;;;;;;;263877;1096;101080;-74
2021/06/30 00:40:41;;;;;;;6.70;6.10;;;;;;;;;;263837;1095;101196;-73
2021/06/30 00:45:44;;;;;;;7.15;6.65;;;;;;;;;;263769;1095;101901;-74
2021/06/30 00:50:49;;;;;;;6.70;6.20;;;;;;;;;;263761;1096;101392;-73
2021/06/30 00:55:52;;;;;;;6.90;6.38;;;;;;;;;;263856;1095;101178;-72
2021/06/30 01:00:55;;;;;;;7.03;6.43;;;;;;;;;;263769;1096;101004;-71
2021/06/30 01:05:58;;;;;;;7.20;6.60;;;;;;;;;;263903;1095;101487;-72
2021/06/30 01:11:01;;;;;;;7.88;7.18;;;;;;;;;;263799;1095;101773;-75
2021/06/30 01:16:07;;;;;;;8.63;7.75;;;;;;;;;;263471;1096;101116;-74
2021/06/30 01:21:17;;;;;;;8.18;7.40;;;;;;;;;;263706;1095;101431;-72
2021/06/30 01:26:21;;;;;;;9.33;7.08;;;;;;;;;;263788;1096;101077;-71
2021/06/30 01:31:24;;;;;;;7.83;6.95;;;;;;;;;;263741;1096;101250;-60
2021/06/30 01:36:27;;;;;;;8.05;7.33;;;;;;;;;;263737;1095;101610;-71
2021/06/30 01:41:30;;;;;;;8.40;7.63;;;;;;;;;;263766;1096;102281;-71
2021/06/30 01:46:35;;;;;;;8.20;7.53;;;;;;;;;;263636;1096;101137;-73
2021/06/30 01:51:42;;;;;;;8.50;7.60;;;;;;;;;;263615;1096;101128;-70
2021/06/30 01:56:48;;;;;;;9.30;8.03;;;;;;;;;;263836;1095;101274;-73
2021/06/30 02:01:52;;;;;;;9.83;9.03;;;;;;;;;;263664;1096;101576;-71
2021/06/30 02:06:55;;;;;;;9.28;8.38;;;;;;;;;;263667;1096;101149;-72
2021/06/30 02:11:58;;;;;;;10.18;8.33;;;;;;;;;;263784;1096;102092;-72
2021/06/30 02:17:02;;;;;;;8.63;7.90;;;;;;;;;;263720;1094;101146;-72
2021/06/30 02:22:09;;;;;;;8.30;7.50;;;;;;;;;;263734;1095;101071;-72
2021/06/30 02:27:12;;;;;;;8.05;7.35;;;;;;;;;;263939;1095;101534;-71
2021/06/30 02:32:15;;;;;;;7.20;6.50;;;;;;;;;;263800;1095;101736;-73
2021/06/30 02:37:20;;;;;;;7.48;6.65;;;;;;;;;;263847;1095;101071;-71
2021/06/30 02:42:27;;;;;;;8.00;7.30;;;;;;;;;;263825;1096;101391;-73
2021/06/30 02:47:31;;;;;;;7.83;7.08;;;;;;;;;;263942;1094;101052;-73
2021/06/30 02:52:38;;;;;;;7.78;7.08;;;;;;;;;;263845;1096;101314;-73
2021/06/30 02:57:41;;;;;;;8.75;7.70;;;;;;;;;;263539;1096;101514;-77
2021/06/30 03:02:44;;;;;;;11.00;8.73;;;;;;;;;;263834;1095;101279;-75
2021/06/30 03:07:50;;;;;;;8.70;8.00;;;;;;;;;;263829;1094;101322;-73
2021/06/30 03:12:53;;;;;;;8.30;7.60;;;;;;;;;;263863;1095;101434;-72
2021/06/30 03:17:56;;;;;;;9.40;8.60;;;;;;;;;;263826;1095;101790;-72
2021/06/30 03:23:00;;;;;;;9.00;8.30;;;;;;;;;;263744;1096;101120;-73
2021/06/30 03:28:08;;;;;;;7.73;7.03;;;;;;;;;;263868;1095;101166;-73
2021/06/30 03:33:11;;;;;;;7.50;6.83;;;;;;;;;;263756;1095;101211;-73
2021/06/30 03:38:14;;;;;;;7.33;6.73;;;;;;;;;;263882;1096;101195;-72
2021/06/30 03:43:17;;;;;;;6.93;6.35;;;;;;;;;;263834;1095;101917;-72
2021/06/30 03:48:20;;;;;;;7.53;6.93;;;;;;;;;;263743;1095;101124;-72
2021/06/30 03:53:22;;;;;;;8.03;7.33;;;;;;;;;;263850;1096;101069;-71
2021/06/30 03:58:25;;;;;;;7.40;6.70;;;;;;;;;;263723;1095;100952;-71
2021/06/30 04:03:30;;;;;;;7.25;6.60;;;;;;;;;;263845;1095;101077;-71
2021/06/30 04:08:37;;;;;;;7.00;6.48;;;;;;;;;;263874;1095;101038;-73
2021/06/30 04:13:40;;;;;;;7.28;6.68;;;;;;;;;;263759;1096;101204;-72
2021/06/30 04:18:44;;;;;;;6.75;6.25;;;;;;;;;;263919;1095;102126;-77
2021/06/30 04:23:47;;;;;;;7.35;6.75;;;;;;;;;;263841;1095;101011;-75
2021/06/30 04:28:50;;;;;;;7.93;7.30;;;;;;;;;;263799;1096;101563;-71
2021/06/30 04:33:53;;;;;;;7.83;7.13;;;;;;;;;;263911;1096;102001;-76
2021/06/30 04:38:56;;;;;;;7.05;6.55;;;;;;;;;;263873;1095;101825;-71
2021/06/30 04:44:05;;;;;;;7.25;6.68;;;;;;;;;;263864;1096;101026;-72
2021/06/30 04:49:10;;;;;;;7.18;6.65;;;;;;;;;;263826;1096;100833;-72
2021/06/30 04:54:14;;;;;;;8.28;7.58;;;;;;;;;;263877;1096;101232;-60
2021/06/30 04:59:17;;;;;;;11.40;7.28;;;;;;;;;;263793;1095;101977;-70
2021/06/30 05:04:21;;;;;;;7.70;7.10;;;;;;;;;;263845;1094;101688;-71
2021/06/30 05:09:26;;;;;;;8.23;7.40;;;;;;;;;;263797;1095;101184;-70
2021/06/30 05:14:29;;;;;;;8.15;7.45;;;;;;;;;;263857;1095;101100;-73
2021/06/30 05:19:33;;;;;;;8.35;7.55;;;;;;;;;;263915;1095;101098;-69
2021/06/30 05:24:35;;;;;;;8.58;7.88;;;;;;;;;;263889;1095;102327;-70
2021/06/30 05:29:39;;;;;;;9.50;8.55;;;;;;;;;;263820;1095;101304;-73
2021/06/30 05:34:42;;;;;;;8.50;7.90;;;;;;;;;;263806;1095;101110;-71
2021/06/30 05:39:45;;;;;;;8.73;8.03;;;;;;;;;;263857;1096;101052;-70
2021/06/30 05:44:48;;;;;;;8.68;7.90;;;;;;;;;;263891;1095;100954;-70
2021/06/30 05:49:51;;;;;;;9.83;8.85;;;;;;;;;;263883;1096;100990;-70
2021/06/30 05:54:55;;;;;;;9.05;8.13;;;;;;;;;;263775;1096;101004;-74
2021/06/30 06:00:02;;;;;;;8.95;8.10;;;;;;;;;;263733;1096;101429;-71
2021/06/30 06:05:08;;;;;;;9.48;7.98;;;;;;;;;;263794;1095;101178;-74
2021/06/30 06:10:12;;;;;;;9.50;8.60;;;;;;;;;;263827;1095;100660;-69
2021/06/30 06:15:14;;;;;;;8.98;8.18;;;;;;;;;;263794;1095;101582;-73
2021/06/30 06:20:20;;;;;;;8.98;8.25;;;;;;;;;;263825;1095;101097;-69
2021/06/30 06:25:25;;;;;;;9.30;8.50;;;;;;;;;;263733;1095;100732;-71
2021/06/30 06:30:30;;;;;;;;;;;;;;;;;;263877;1095;101229;-74
2021/06/30 06:35:37;;;;;;;10.45;9.45;;;;;;;;;;263646;1095;101163;-73
2021/06/30 06:40:41;;;;;;;10.43;9.48;;;;;;;;;;263555;1096;102022;-75
2021/06/30 06:45:49;;;;;;;11.28;10.00;;;;;;;;;;263454;1096;101191;-70
2021/06/30 06:50:53;;;;;;;10.33;9.43;;;;;;;;;;263885;1095;101236;-70
2021/06/30 06:56:01;;;;;;;10.73;9.60;;;;;;;;;;263739;1095;101152;-70
2021/06/30 07:01:06;;;;;;;11.98;10.73;;;;;;;;;;263652;1095;102410;-75
2021/06/30 07:06:10;;;;;;;10.20;9.50;;;;;;;;;;263877;1095;102264;-71
2021/06/30 07:11:14;;;;;;;10.60;9.58;;;;;;;;;;263805;1095;101264;-72
2021/06/30 07:16:23;;;;;;;10.95;10.05;;;;;;;;;;263452;1094;101059;-70
2021/06/30 07:21:27;;;;;;;10.45;9.43;;;;;;;;;;263360;1096;101077;-70
2021/06/30 07:26:30;;;;;;;9.70;8.90;;;;;;;;;;263330;1096;101179;-71
2021/06/30 07:31:33;;;;;;;10.48;9.58;;;;;;;;;;263612;1095;101623;-70
2021/06/30 07:36:36;;;;;;;10.10;9.30;;;;;;;;;;263637;1096;100855;-71
2021/06/30 07:41:39;;;;;;;8.63;7.83;;;;;;;;;;263687;1096;100783;-71
2021/06/30 07:46:42;;;;;;;8.30;7.60;;;;;;;;;;263563;1095;176050;-71
2021/06/30 07:51:45;;;;;;;11.48;8.50;;;;;;;;;;263413;1095;100715;-70
2021/06/30 07:56:48;;;;;;;6.88;6.28;;;;;;;;;;263514;1096;103081;-71
2021/06/30 08:01:54;;;;;;;5.75;5.28;;;;;;;;;;263577;1096;101187;-70
2021/06/30 08:07:01;;;;;;;5.83;5.15;;;;;;;;;;263765;1096;102783;-71
2021/06/30 08:12:06;;;;;;;5.20;4.80;;;;;;;;;;263790;1095;101042;-70
2021/06/30 08:17:15;;;;;;;7.75;6.93;;;;;;;;;;263858;1095;100941;-73
2021/06/30 08:22:35;;;;;;;4.53;4.13;;;;;;;;;;263834;1095;102326;-71
2021/06/30 08:27:44;;;;;;;5.43;4.95;;;;;;;;;;263885;1095;101172;-75
2021/06/30 08:32:55;;;;;;;20.05;16.00;;;;;;;;;;263893;1095;101043;-75
2021/06/30 08:37:58;;;;;;;5.55;4.75;;;;;;;;;;263801;1095;101239;-72
2021/06/30 08:43:02;;;;;;;5.23;4.83;;;;;;;;;;263852;1095;101039;-75
2021/06/30 08:48:09;;;;;;;5.80;5.20;;;;;;;;;;263874;1096;101965;-72
2021/06/30 08:53:13;;;;;;;5.45;4.93;;;;;;;;;;263826;1095;101276;-70
2021/06/30 08:58:16;;;;;;;6.20;5.70;;;;;;;;;;263826;1096;101183;-70
2021/06/30 09:03:21;;;;;;;6.20;5.70;;;;;;;;;;263872;1096;102033;-74
2021/06/30 09:08:36;;;;;;;6.55;5.70;;;;;;;;;;263846;1096;101071;-71
2021/06/30 09:13:39;;;;;;;6.73;6.23;;;;;;;;;;263839;1095;102544;-71
2021/06/30 09:18:43;;;;;;;6.73;6.23;;;;;;;;;;263754;1096;100871;-75
2021/06/30 09:23:59;;;;;;;7.38;6.68;;;;;;;;;;263853;1096;101155;-71
2021/06/30 09:29:08;;;;;;;8.18;6.75;;;;;;;;;;263929;1095;100977;-71
2021/06/30 09:34:12;;;;;;;10.30;8.98;;;;;;;;;;263648;1096;100983;-71
2021/06/30 09:39:15;;;;;;;8.83;8.15;;;;;;;;;;263566;1095;101789;-71
2021/06/30 09:44:20;;;;;;;8.00;7.30;;;;;;;;;;263871;1095;101119;-73
2021/06/30 09:49:24;;;;;;;;;;;;;;;;;;263772;1096;101129;-73
2021/06/30 09:54:31;;;;;;;8.80;8.00;;;;;;;;;;263936;1096;101013;-76
2021/06/30 09:59:37;;;;;;;;;;;;;;;;;;263914;1095;100952;-76
2021/06/30 10:04:42;;;;;;;8.73;8.08;;;;;;;;;;263857;1095;101879;-74
2021/06/30 10:09:49;;;;;;;8.65;7.95;;;;;;;;;;263786;1096;101191;-71
2021/06/30 10:14:58;;;;;;;8.53;7.73;;;;;;;;;;263736;1095;100918;-74
2021/06/30 10:20:07;;;;;;;9.00;8.20;;;;;;;;;;263808;1096;100812;-72
2021/06/30 10:25:10;;;;;;;10.23;9.03;;;;;;;;;;263859;1095;101132;-71
2021/06/30 10:30:16;;;;;;;8.85;8.25;;;;;;;;;;263847;1095;101577;-71
2021/06/30 10:35:26;;;;;;;9.08;8.38;;;;;;;;;;263843;1095;100866;-75
2021/06/30 10:40:33;;;;;;;10.15;9.33;;;;;;;;;;263752;1094;101230;-70
2021/06/30 10:45:36;;;;;;;10.53;9.73;;;;;;;;;;263493;1095;102601;-72
2021/06/30 10:50:42;;;;;;;9.78;8.90;;;;;;;;;;263810;1096;101017;-70
2021/06/30 10:55:49;;;;;;;10.13;9.23;;;;;;;;;;263768;1095;100874;-73
2021/06/30 11:01:00;;;;;;;10.48;9.58;;;;;;;;;;263768;1095;101478;-72
2021/06/30 11:06:09;;;;;;;10.38;9.68;;;;;;;;;;263562;1095;102205;-73
2021/06/30 11:11:16;;;;;;;11.40;10.38;;;;;;;;;;263713;1094;101151;-71
2021/06/30 11:16:39;;;;;;;12.50;11.35;;;;;;;;;;263707;1095;101105;-71
2021/06/30 11:21:48;;;;;;;12.65;11.65;;;;;;;;;;263340;1095;101693;-71
2021/06/30 11:26:56;;;;;;;15.63;14.43;;;;;;;;;;263483;1095;101354;-72
2021/06/30 11:31:59;;;;;;;14.90;13.80;;;;;;;;;;263812;1096;101146;-71
2021/06/30 11:37:02;;;;;;;13.30;12.18;;;;;;;;;;263605;1096;102218;-70
2021/06/30 11:42:08;;;;;;;13.40;12.28;;;;;;;;;;263832;1096;101891;-72
2021/06/30 11:47:12;;;;;;;15.55;14.20;;;;;;;;;;263844;1095;101651;-70
2021/06/30 11:52:17;;;;;;;13.90;12.78;;;;;;;;;;263667;1095;101467;-72
2021/06/30 11:57:20;;;;;;;15.45;14.20;;;;;;;;;;263459;1095;101519;-71
2021/06/30 12:02:24;;;;;;;16.80;15.50;;;;;;;;;;263659;1095;101050;-72
2021/06/30 12:07:45;;;;;;;18.30;16.73;;;;;;;;;;263807;1095;101498;-70
2021/06/30 12:12:53;;;;;;;18.30;16.83;;;;;;;;;;263376;1097;100852;-73
2021/06/30 12:18:00;;;;;;;17.68;16.48;;;;;;;;;;263690;1096;100816;-74
2021/06/30 12:23:06;;;;;;;15.13;14.03;;;;;;;;;;263626;1095;101515;-72
2021/06/30 12:28:11;;;;;;;16.55;15.25;;;;;;;;;;263642;1096;101077;-71
2021/06/30 12:33:17;;;;;;;13.33;12.33;;;;;;;;;;263640;1096;101087;-72
2021/06/30 12:38:26;;;;;;;11.30;10.38;;;;;;;;;;263472;1096;101975;-71
2021/06/30 12:43:29;;;;;;;12.80;11.73;;;;;;;;;;263854;1095;100861;-70
2021/06/30 12:48:37;;;;;;;12.53;11.68;;;;;;;;;;263903;1096;100920;-73
2021/06/30 12:53:50;;;;;;;10.75;10.05;;;;;;;;;;263455;1095;101400;-72
2021/06/30 12:58:56;;;;;;;10.45;9.70;;;;;;;;;;263632;1096;101288;-72
2021/06/30 13:04:06;;;;;;;9.30;8.28;;;;;;;;;;263651;1095;102221;-73
2021/06/30 13:09:12;;;;;;;8.60;7.90;;;;;;;;;;263719;1090;101102;-74
2021/06/30 13:14:21;;;;;;;9.63;8.83;;;;;;;;;;263860;1095;100873;-75
2021/06/30 13:19:25;;;;;;;7.50;6.80;;;;;;;;;;263897;1095;101468;-71
2021/06/30 13:24:37;;;;;;;7.90;7.20;;;;;;;;;;263774;1095;100835;-75
2021/06/30 13:35:34;;;;;;;6.48;5.98;;;;;;;;;;263269;1095;101186;-72
2021/06/30 13:40:41;;;;;;;6.60;5.93;;;;;;;;;;263530;1095;101191;-73
2021/06/30 13:45:48;;;;;;;5.68;5.18;;;;;;;;;;263303;1096;101030;-70
2021/06/30 13:50:55;;;;;;;6.50;5.90;;;;;;;;;;263446;1096;101067;-71
2021/06/30 13:56:00;;;;;;;5.40;4.88;;;;;;;;;;263431;1096;101962;-60
2021/06/30 14:01:04;;;;;;;4.58;4.18;;;;;;;;;;263714;1096;101876;-71
2021/06/30 14:06:07;;;;;;;;;;;;;;;;;;263952;1095;101021;-71
2021/06/30 14:11:11;;;;;;;7.58;4.93;;;;;;;;;;264010;1096;101095;-70
2021/06/30 14:16:15;;;;;;;4.60;4.30;;;;;;;;;;263832;1094;100926;-74
2021/06/30 14:21:28;;;;;;;4.38;4.08;;;;;;;;;;263775;1095;101095;-71
2021/06/30 14:26:31;;;;;;;4.15;3.75;;;;;;;;;;263798;1096;101088;-75
2021/06/30 14:31:38;;;;;;;4.35;3.95;;;;;;;;;;263875;1095;101104;-71
2021/06/30 14:36:44;;;;;;;7.00;6.50;;;;;;;;;;263820;1095;101237;-70
2021/06/30 14:41:47;;;;;;;6.15;5.00;;;;;;;;;;263884;1096;101026;-71
2021/06/30 14:46:50;;;;;;;4.95;4.30;;;;;;;;;;263751;1095;101653;-73
2021/06/30 14:51:53;;;;;;;5.63;4.45;;;;;;;;;;263861;1096;100801;-71
2021/06/30 14:56:56;;;;;;;4.58;4.28;;;;;;;;;;263800;1096;101064;-70
2021/06/30 15:02:00;;;;;;;5.73;4.38;;;;;;;;;;263887;1095;101019;-71
2021/06/30 15:07:03;;;;;;;4.78;4.30;;;;;;;;;;263944;1096;100915;-71
2021/06/30 15:12:09;;;;;;;4.63;4.20;;;;;;;;;;263826;1096;101268;-72
2021/06/30 15:17:17;;;;;;;4.50;4.08;;;;;;;;;;263884;1094;101116;-72
2021/06/30 15:22:20;;;;;;;6.78;4.20;;;;;;;;;;263926;1096;101159;-71
2021/06/30 15:27:23;;;;;;;4.63;4.23;;;;;;;;;;263921;1095;101038;-73
2021/06/30 15:32:26;;;;;;;4.98;4.58;;;;;;;;;;263907;1095;101668;-71
2021/06/30 15:37:29;;;;;;;4.65;4.25;;;;;;;;;;263750;1095;101818;-71
2021/06/30 15:42:32;;;;;;;4.55;4.15;;;;;;;;;;263802;1096;101530;-73
2021/06/30 15:47:37;;;;;;;3.98;3.75;;;;;;;;;;263791;1095;101232;-81
2021/06/30 15:52:44;;;;;;;4.08;3.78;;;;;;;;;;263809;1095;101856;-73
2021/06/30 15:57:48;;;;;;;4.83;3.75;;;;;;;;;;263917;1094;100659;-78
2021/06/30 16:02:51;;;;;;;3.48;3.23;;;;;;;;;;263753;1095;101543;-73
2021/06/30 16:07:54;;;;;;;3.30;3.00;;;;;;;;;;263740;1095;101182;-71
2021/06/30 16:12:57;;;;;;;3.23;2.75;;;;;;;;;;263776;1096;102167;-72
2021/06/30 16:18:00;;;;;;;2.83;2.63;;;;;;;;;;263714;1096;101216;-72
2021/06/30 16:23:04;;;;;;;2.58;2.38;;;;;;;;;;263767;1095;102144;-75
2021/06/30 16:28:07;;;;;;;3.00;2.50;;;;;;;;;;263780;1094;101426;-79
2021/06/30 16:33:13;;;;;;;3.05;2.85;;;;;;;;;;263755;1095;101695;-76
2021/06/30 16:38:16;;;;;;;2.13;1.93;;;;;;;;;;263747;1095;101275;-74
2021/06/30 16:43:22;;;;;;;2.30;2.20;;;;;;;;;;263773;1095;102047;-73
2021/06/30 16:48:25;;;;;;;1.58;1.48;;;;;;;;;;263620;1095;100957;-75
2021/06/30 16:53:28;;;;;;;1.23;1.15;;;;;;;;;;263732;1096;101938;-81
2021/06/30 16:58:33;;;;;;;1.48;1.38;;;;;;;;;;263722;1096;101987;-72
2021/06/30 17:03:41;;;;;;;1.08;1.08;;;;;;;;;;263787;1096;101757;-72
2021/06/30 17:08:44;;;;;;;1.60;1.50;;;;;;;;;;263741;1095;101209;-73
2021/06/30 17:13:47;;;;;;;1.43;1.30;;;;;;;;;;263833;1095;101097;-74
2021/06/30 17:18:50;;;;;;;1.50;1.50;;;;;;;;;;263726;1096;101807;-73
2021/06/30 17:23:53;;;;;;;1.20;1.15;;;;;;;;;;263581;1095;102462;-72
2021/06/30 17:28:56;;;;;;;1.30;1.18;;;;;;;;;;263682;1095;101116;-74
2021/06/30 17:33:58;;;;;;;4.45;1.45;;;;;;;;;;263697;1096;101785;-72
2021/06/30 17:39:05;;;;;;;1.35;1.35;;;;;;;;;;263794;1095;101176;-72
2021/06/30 17:44:13;;;;;;;1.63;1.53;;;;;;;;;;263800;1095;101333;-72
2021/06/30 17:49:20;;;;;;;4.13;3.83;;;;;;;;;;263719;1096;101031;-73
2021/06/30 17:54:22;;;;;;;6.78;6.18;;;;;;;;;;263801;1095;101075;-73
2021/06/30 17:59:27;;;;;;;2.18;1.90;;;;;;;;;;263735;1094;101631;-71
2021/06/30 18:04:30;;;;;;;1.55;1.45;;;;;;;;;;263840;1096;101751;-74
2021/06/30 18:09:35;;;;;;;2.35;2.23;;;;;;;;;;263777;1095;102399;-74
2021/06/30 18:14:38;;;;;;;2.05;1.95;;;;;;;;;;263681;1096;101188;-71
2021/06/30 18:19:42;;;;;;;2.23;2.00;;;;;;;;;;263773;1095;100994;-75
2021/06/30 18:24:44;;;;;;;2.50;2.30;;;;;;;;;;263756;1096;101489;-73
2021/06/30 18:29:47;;;;;;;2.50;2.40;;;;;;;;;;263775;1096;101039;-73
2021/06/30 18:34:51;;;;;;;2.00;1.90;;;;;;;;;;263728;1095;102366;-72
2021/06/30 18:39:55;;;;;;;2.58;2.43;;;;;;;;;;263737;1095;101508;-72
2021/06/30 18:44:58;;;;;;;3.15;2.53;;;;;;;;;;263839;1096;101588;-75
2021/06/30 18:50:01;;;;;;;3.78;2.35;;;;;;;;;;263816;1095;101777;-75
2021/06/30 18:55:05;;;;;;;2.33;2.18;;;;;;;;;;263813;1095;100754;-62
2021/06/30 19:00:17;;;;;;;6.35;5.65;;;;;;;;;;263765;1095;101564;-75
2021/06/30 19:05:21;;;;;;;4.43;4.03;;;;;;;;;;263833;1095;100931;-73
2021/06/30 19:10:24;;;;;;;4.05;3.75;;;;;;;;;;263680;1095;100929;-71
2021/06/30 19:15:28;;;;;;;2.70;2.50;;;;;;;;;;263802;1096;101177;-72
2021/06/30 19:20:33;;;;;;;4.18;3.13;;;;;;;;;;263699;1096;101091;-73
2021/06/30 19:25:36;;;;;;;2.95;2.20;;;;;;;;;;263777;1096;102472;-71
2021/06/30 19:30:41;;;;;;;2.75;2.55;;;;;;;;;;263813;1095;101228;-75
2021/06/30 19:35:47;;;;;;;3.85;2.40;;;;;;;;;;263763;1095;100847;-72
2021/06/30 19:40:51;;;;;;;3.68;2.20;;;;;;;;;;263772;1095;101364;-70
2021/06/30 19:45:54;;;;;;;2.55;2.35;;;;;;;;;;263835;1095;101054;-71
2021/06/30 19:51:04;;;;;;;2.75;2.33;;;;;;;;;;263814;1096;101623;-71
2021/06/30 19:56:07;;;;;;;2.85;2.60;;;;;;;;;;263776;1096;101095;-72
2021/06/30 20:01:09;;;;;;;3.55;2.65;;;;;;;;;;263818;1095;101600;-71
2021/06/30 20:06:12;;;;;;;2.93;2.70;;;;;;;;;;263796;1095;101067;-71
2021/06/30 20:11:15;;;;;;;3.68;3.08;;;;;;;;;;263845;1096;100897;-72
2021/06/30 20:16:18;;;;;;;3.00;2.80;;;;;;;;;;263825;1096;103312;-71
2021/06/30 20:21:24;;;;;;;4.48;2.80;;;;;;;;;;263738;1095;101016;-71
2021/06/30 20:31:42;;;;;;;4.88;4.38;;;;;;;;;;263769;1095;101104;-74
2021/06/30 20:36:45;;;;;;;3.48;3.18;;;;;;;;;;263870;1095;101010;-72
2021/06/30 20:41:48;;;;;;;2.95;2.75;;;;;;;;;;263708;1095;101737;-70
2021/06/30 20:46:53;;;;;;;3.63;3.43;;;;;;;;;;263527;1096;100939;-71
2021/06/30 21:07:45;;;;;;;4.58;4.18;;;;;;;;;;258435;1093;103034;-71
2021/06/30 21:12:47;;;;;;;3.93;3.63;;;;;;;;;;258291;1093;103021;-70
2021/06/30 21:17:49;;;;;;;3.48;3.28;;;;;;;;;;259342;1093;103023;-72
2021/06/30 21:22:55;;;;;;;4.30;3.55;;;;;;;;;;257682;1093;103018;-70
2021/06/30 21:27:57;;;;;;;4.05;3.55;;;;;;;;;;258186;1092;103202;-72
2021/06/30 21:33:01;;;;;;;5.03;4.08;;;;;;;;;;258337;1092;102992;-74
2021/06/30 21:38:04;;;;;;;4.53;4.13;;;;;;;;;;258656;1093;103380;-71
2021/06/30 21:43:06;;;;;;;3.55;3.03;;;;;;;;;;257578;1092;103080;-71
2021/06/30 21:48:09;;;;;;;4.53;4.13;;;;;;;;;;259003;1092;103013;-70
2021/06/30 21:53:10;;;;;;;4.78;4.38;;;;;;;;;;258614;1095;103046;-72
2021/06/30 21:58:12;;;;;;;5.03;3.93;;;;;;;;;;257376;1093;103226;-70
2021/06/30 22:03:14;;;;;;;4.05;3.70;;;;;;;;;;258319;1093;103028;-71
2021/06/30 22:08:16;;;;;;;4.10;3.73;;;;;;;;;;258148;1093;103007;-70
2021/06/30 22:13:18;;;;;;;4.20;3.85;;;;;;;;;;257426;1096;103110;-71
2021/06/30 22:18:20;;;;;;;4.28;3.98;;;;;;;;;;257816;1094;105389;-71
2021/06/30 22:23:24;;;;;;;4.80;4.30;;;;;;;;;;257851;1095;103054;-71
2021/06/30 22:28:31;;;;;;;4.55;4.20;;;;;;;;;;258512;1096;103485;-70
2021/06/30 22:33:33;;;;;;;4.60;4.20;;;;;;;;;;258041;1096;103018;-71
2021/06/30 22:38:35;;;;;;;4.85;4.55;;;;;;;;;;258233;1095;103021;-69
2021/06/30 22:43:37;;;;;;;5.20;4.70;;;;;;;;;;257578;1095;103065;-59
2021/06/30 22:48:41;;;;;;;5.10;4.60;;;;;;;;;;258444;1094;103429;-72
2021/06/30 22:53:47;;;;;;;6.20;5.68;;;;;;;;;;258085;1093;103092;-71
2021/06/30 22:58:55;;;;;;;5.70;5.20;;;;;;;;;;259377;1093;103029;-70
2021/06/30 23:03:58;;;;;;;6.03;5.43;;;;;;;;;;257774;1093;103077;-72
2021/06/30 23:09:01;;;;;;;5.05;4.60;;;;;;;;;;259080;1093;103125;-73
2021/06/30 23:14:06;;;;;;;5.68;5.10;;;;;;;;;;258441;1092;103044;-73
2021/06/30 23:19:08;;;;;;;6.28;5.80;;;;;;;;;;258114;1091;103044;-71
2021/06/30 23:24:09;;;;;;;6.28;5.85;;;;;;;;;;257972;1093;103026;-72
2021/06/30 23:29:14;;;;;;;6.58;6.08;;;;;;;;;;257656;1093;103105;-74
2021/06/30 23:44:27;;;;;;;6.90;4.80;;;;;;;;;;258771;1093;103005;-72
2021/06/30 23:49:29;;;;;;;6.35;5.85;;;;;;;;;;257587;1093;103130;-71
2021/06/30 23:54:32;;;;;;;5.85;5.45;;;;;;;;;;258007;1093;103015;-74
2021/06/30 23:59:38;;;;;;;7.13;6.50;;;;;;;;;;259785;1090;103082;-73
